createdAt,value
2023-04-02T00:01:34.458Z,1012.50
2023-04-02T00:04:13.328Z,1012.68
2023-04-02T00:06:40.713Z,1012.66
2023-04-02T00:09:29.836Z,1012.65
2023-04-02T00:11:57.705Z,1012.52
2023-04-02T00:14:28.375Z,1012.58
2023-04-02T00:16:56.922Z,1012.42
2023-04-02T00:19:30.758Z,1012.47
2023-04-02T00:21:59.267Z,1012.41
2023-04-02T00:24:26.023Z,1012.42
2023-04-02T00:26:54.009Z,1012.37
2023-04-02T00:29:21.240Z,1012.45
2023-04-02T00:31:51.445Z,1012.36
2023-04-02T00:34:22.396Z,1012.47
2023-04-02T00:36:50.375Z,1012.53
2023-04-02T00:39:24.060Z,1012.51
2023-04-02T00:41:54.123Z,1012.44
2023-04-02T00:44:21.141Z,1012.42
2023-04-02T00:46:50.785Z,1012.51
2023-04-02T00:49:22.571Z,1012.56
2023-04-02T00:51:52.784Z,1012.53
2023-04-02T00:54:23.099Z,1012.55
2023-04-02T00:56:53.498Z,1012.55
2023-04-02T00:59:26.859Z,1012.54
2023-04-02T01:01:58.931Z,1012.55
2023-04-02T01:04:32.751Z,1012.62
2023-04-02T01:07:02.616Z,1012.51
2023-04-02T01:09:42.456Z,1012.53
2023-04-02T01:12:30.004Z,1012.54
2023-04-02T01:15:07.112Z,1012.70
2023-04-02T01:17:50.614Z,1012.63
2023-04-02T01:20:59.688Z,1012.66
2023-04-02T01:23:32.403Z,1012.69
2023-04-02T01:26:06.424Z,1012.68
2023-04-02T01:29:01.325Z,1012.65
2023-04-02T01:31:29.750Z,1012.67
2023-04-02T01:33:57.036Z,1012.72
2023-04-02T01:36:31.758Z,1012.77
2023-04-02T01:39:08.057Z,1012.76
2023-04-02T01:41:43.459Z,1012.82
2023-04-02T01:44:18.494Z,1012.88
2023-04-02T01:46:48.805Z,1012.84
2023-04-02T01:49:19.649Z,1012.80
2023-04-02T01:51:50.726Z,1012.81
2023-04-02T01:54:18.267Z,1012.85
2023-04-02T01:56:46.400Z,1012.75
2023-04-02T01:59:19.882Z,1012.84
2023-04-02T02:01:51.204Z,1012.93
2023-04-02T02:04:18.954Z,1012.97
2023-04-02T02:06:47.159Z,1013.04
2023-04-02T02:09:19.800Z,1013.09
2023-04-02T02:11:46.648Z,1013.12
2023-04-02T02:14:16.985Z,1013.21
2023-04-02T02:16:45.659Z,1013.20
2023-04-02T02:19:22.380Z,1013.12
2023-04-02T02:21:52.061Z,1013.19
2023-04-02T02:24:22.853Z,1013.24
2023-04-02T02:27:03.488Z,1013.21
2023-04-02T02:29:36.808Z,1013.20
2023-04-02T02:32:06.307Z,1013.29
2023-04-02T02:34:39.053Z,1013.28
2023-04-02T02:37:12.948Z,1013.37
2023-04-02T02:39:43.217Z,1013.34
2023-04-02T02:42:15.724Z,1013.27
2023-04-02T02:44:47.441Z,1013.28
2023-04-02T02:47:16.496Z,1013.34
2023-04-02T02:49:45.874Z,1013.39
2023-04-02T02:52:19.221Z,1013.39
2023-04-02T02:54:49.483Z,1013.42
2023-04-02T02:57:21.503Z,1013.40
2023-04-02T02:59:51.089Z,1013.38
2023-04-02T03:02:19.058Z,1013.39
2023-04-02T03:04:50.019Z,1013.48
2023-04-02T03:07:17.719Z,1013.49
2023-04-02T03:09:52.482Z,1013.49
2023-04-02T03:12:42.305Z,1013.49
2023-04-02T03:15:18.805Z,1013.47
2023-04-02T03:17:51.220Z,1013.55
2023-04-02T03:20:24.364Z,1013.52
2023-04-02T03:22:57.484Z,1013.62
2023-04-02T03:25:35.854Z,1013.58
2023-04-02T03:28:08.569Z,1013.54
2023-04-02T03:30:43.028Z,1013.61
2023-04-02T03:33:15.205Z,1013.62
2023-04-02T03:35:47.600Z,1013.64
2023-04-02T03:38:20.336Z,1013.63
2023-04-02T03:40:58.227Z,1013.55
2023-04-02T03:43:27.067Z,1013.55
2023-04-02T03:46:00.164Z,1013.51
2023-04-02T03:48:34.568Z,1013.51
2023-04-02T03:51:07.985Z,1013.52
2023-04-02T03:53:34.775Z,1013.57
2023-04-02T03:56:02.297Z,1013.56
2023-04-02T03:58:35.143Z,1013.54
2023-04-02T04:01:08.883Z,1013.62
2023-04-02T04:03:41.781Z,1013.61
2023-04-02T04:06:12.016Z,1013.62
2023-04-02T04:08:44.917Z,1013.69
2023-04-02T04:11:15.908Z,1013.70
2023-04-02T04:13:49.282Z,1013.76
2023-04-02T04:16:22.449Z,1013.70
2023-04-02T04:18:53.300Z,1013.84
2023-04-02T04:21:22.990Z,1013.79
2023-04-02T04:23:51.036Z,1013.84
2023-04-02T04:26:22.973Z,1013.85
2023-04-02T04:28:57.350Z,1013.92
2023-04-02T04:31:32.239Z,1013.96
2023-04-02T04:34:05.067Z,1013.98
2023-04-02T04:36:36.372Z,1014.01
2023-04-02T04:39:08.345Z,1013.98
2023-04-02T04:41:38.665Z,1014.05
2023-04-02T04:44:14.587Z,1013.94
2023-04-02T04:46:47.393Z,1014.11
2023-04-02T04:49:19.744Z,1014.02
2023-04-02T04:51:50.963Z,1014.13
2023-04-02T04:54:18.041Z,1014.19
2023-04-02T04:56:48.189Z,1014.22
2023-04-02T04:59:20.997Z,1014.21
2023-04-02T05:01:55.683Z,1014.29
2023-04-02T05:04:27.569Z,1014.39
2023-04-02T05:06:57.183Z,1014.42
2023-04-02T05:09:29.475Z,1014.40
2023-04-02T05:12:06.412Z,1014.33
2023-04-02T05:14:40.088Z,1014.33
2023-04-02T05:17:13.400Z,1014.38
2023-04-02T05:19:45.721Z,1014.45
2023-04-02T05:22:20.107Z,1014.46
2023-04-02T05:25:07.323Z,1014.54
2023-04-02T05:27:40.108Z,1014.53
2023-04-02T05:30:13.663Z,1014.60
2023-04-02T05:32:46.607Z,1014.63
2023-04-02T05:35:18.525Z,1014.62
2023-04-02T05:37:46.032Z,1014.57
2023-04-02T05:40:20.050Z,1014.66
2023-04-02T05:42:49.729Z,1014.62
2023-04-02T05:45:25.648Z,1014.70
2023-04-02T05:47:56.297Z,1014.75
2023-04-02T05:50:27.827Z,1014.75
2023-04-02T05:52:58.648Z,1014.76
2023-04-02T05:55:37.917Z,1014.66
2023-04-02T05:58:33.862Z,1014.66
2023-04-02T06:01:13.885Z,1014.65
2023-04-02T06:03:49.455Z,1014.60
2023-04-02T06:06:24.208Z,1014.61
2023-04-02T06:08:57.612Z,1014.53
2023-04-02T06:11:28.544Z,1014.55
2023-04-02T06:13:55.458Z,1014.57
2023-04-02T06:16:26.943Z,1014.56
2023-04-02T06:18:56.143Z,1014.43
2023-04-02T06:21:22.861Z,1014.33
2023-04-02T06:23:55.324Z,1014.26
2023-04-02T06:26:27.580Z,1014.21
2023-04-02T06:29:01.100Z,1014.12
2023-04-02T06:31:34.484Z,1014.08
2023-04-02T06:34:03.847Z,1014.00
2023-04-02T06:36:32.483Z,1013.89
2023-04-02T06:39:05.307Z,1013.86
2023-04-02T06:41:32.293Z,1013.73
2023-04-02T06:44:04.121Z,1013.69
2023-04-02T06:46:35.294Z,1013.62
2023-04-02T06:49:14.056Z,1013.59
2023-04-02T06:51:42.611Z,1013.52
2023-04-02T06:54:14.129Z,1013.48
2023-04-02T06:56:43.552Z,1013.43
2023-04-02T06:59:10.593Z,1013.36
2023-04-02T07:01:41.531Z,1013.22
2023-04-02T07:04:10.881Z,1013.11
2023-04-02T07:06:37.618Z,1013.14
2023-04-02T07:09:05.065Z,1013.16
2023-04-02T07:11:32.057Z,1013.10
2023-04-02T07:13:58.865Z,1013.01
2023-04-02T07:16:27.624Z,1013.01
2023-04-02T07:18:55.838Z,1012.93
2023-04-02T07:21:24.162Z,1012.92
2023-04-02T07:23:50.943Z,1012.84
2023-04-02T07:26:19.946Z,1012.81
2023-04-02T07:28:46.761Z,1012.69
2023-04-02T07:31:22.403Z,1012.69
2023-04-02T07:33:49.364Z,1012.76
2023-04-02T07:36:17.921Z,1012.57
2023-04-02T07:38:46.378Z,1012.56
2023-04-02T07:41:13.474Z,1012.54
2023-04-02T07:43:41.221Z,1012.46
2023-04-02T07:46:09.760Z,1012.50
2023-04-02T07:48:36.664Z,1012.46
2023-04-02T07:51:03.619Z,1012.37
2023-04-02T07:53:32.883Z,1012.25
2023-04-02T07:56:02.262Z,1012.17
2023-04-02T07:58:29.812Z,1012.07
2023-04-02T08:00:57.020Z,1012.11
2023-04-02T08:03:23.885Z,1011.96
2023-04-02T08:05:52.176Z,1011.90
2023-04-02T08:08:19.080Z,1011.66
2023-04-02T08:10:46.086Z,1011.55
2023-04-02T08:13:14.311Z,1011.52
2023-04-02T08:15:41.208Z,1011.35
2023-04-02T08:18:08.217Z,1011.42
2023-04-02T08:20:35.181Z,1011.35
2023-04-02T08:23:02.270Z,1011.64
2023-04-02T08:25:29.074Z,1011.71
2023-04-02T08:27:55.863Z,1011.67
2023-04-02T08:30:24.021Z,1011.60
2023-04-02T08:32:50.852Z,1011.61
2023-04-02T08:35:19.921Z,1011.58
2023-04-02T08:37:46.695Z,1011.64
2023-04-02T08:40:26.198Z,1011.61
2023-04-02T08:43:05.949Z,1011.68
2023-04-02T08:45:47.572Z,1011.60
2023-04-02T08:48:15.269Z,1011.51
2023-04-02T08:50:44.469Z,1011.63
2023-04-02T08:53:17.832Z,1011.42
2023-04-02T08:55:52.986Z,1011.41
2023-04-02T08:58:29.483Z,1011.27
2023-04-02T09:01:00.882Z,1011.17
2023-04-02T09:03:31.760Z,1011.12
2023-04-02T09:06:00.042Z,1011.07
2023-04-02T09:08:30.013Z,1011.20
2023-04-02T09:11:03.520Z,1011.06
2023-04-02T09:13:33.066Z,1010.93
2023-04-02T09:16:08.296Z,1010.78
2023-04-02T09:18:36.268Z,1010.60
2023-04-02T09:21:18.725Z,1010.42
2023-04-02T09:23:45.458Z,1010.39
2023-04-02T09:26:21.428Z,1010.21
2023-04-02T09:28:49.072Z,1010.06
2023-04-02T09:31:22.072Z,1010.03
2023-04-02T09:33:50.897Z,1010.11
2023-04-02T09:36:42.936Z,1010.31
2023-04-02T09:39:17.479Z,1010.54
2023-04-02T09:41:48.204Z,1010.40
2023-04-02T09:44:24.469Z,1010.38
2023-04-02T09:46:58.152Z,1010.33
2023-04-02T09:49:27.301Z,1010.22
2023-04-02T09:52:19.757Z,1010.22
2023-04-02T09:54:47.119Z,1010.23
2023-04-02T09:57:20.206Z,1010.27
2023-04-02T09:59:47.321Z,1010.24
2023-04-02T10:02:29.511Z,1010.32
2023-04-02T10:04:56.434Z,1010.43
2023-04-02T10:07:32.187Z,1010.43
2023-04-02T10:09:59.663Z,1010.28
2023-04-02T10:12:28.922Z,1010.37
2023-04-02T10:14:57.965Z,1010.45
2023-04-02T10:17:30.631Z,1010.55
2023-04-02T10:20:02.199Z,1010.42
2023-04-02T10:22:29.407Z,1010.44
2023-04-02T10:24:58.451Z,1010.32
2023-04-02T10:27:34.042Z,1010.25
2023-04-02T10:30:13.333Z,1010.30
2023-04-02T10:32:46.558Z,1010.29
2023-04-02T10:35:23.163Z,1010.19
2023-04-02T10:38:19.117Z,1009.94
2023-04-02T10:40:48.848Z,1010.39
2023-04-02T10:43:46.790Z,1010.21
2023-04-02T10:46:20.959Z,1009.95
2023-04-02T10:49:00.322Z,1009.95
2023-04-02T10:51:38.870Z,1010.17
2023-04-02T10:54:24.811Z,1010.15
2023-04-02T10:56:53.602Z,1010.40
2023-04-02T10:59:24.432Z,1010.24
2023-04-02T11:01:55.247Z,1010.14
2023-04-02T11:04:28.463Z,1010.24
2023-04-02T11:07:11.167Z,1010.23
2023-04-02T11:09:43.365Z,1009.86
2023-04-02T11:12:20.512Z,1009.85
2023-04-02T11:14:49.295Z,1009.70
2023-04-02T11:17:19.552Z,1009.59
2023-04-02T11:19:48.767Z,1009.52
2023-04-02T11:22:17.616Z,1009.65
2023-04-02T11:24:46.517Z,1009.80
2023-04-02T11:27:26.407Z,1009.64
2023-04-02T11:30:07.329Z,1009.79
2023-04-02T11:32:37.291Z,1009.98
2023-04-02T11:35:25.184Z,1009.81
2023-04-02T11:37:53.096Z,1009.36
2023-04-02T11:40:43.441Z,1009.37
2023-04-02T11:43:47.631Z,1009.34
2023-04-02T11:46:48.124Z,1009.98
2023-04-02T11:49:39.457Z,1010.20
2023-04-02T11:52:24.676Z,1010.20
2023-04-02T11:55:04.941Z,1010.12
2023-04-02T11:58:12.354Z,1009.96
2023-04-02T12:01:20.574Z,1009.84
2023-04-02T12:04:07.784Z,1009.82
2023-04-02T12:06:48.048Z,1009.94
2023-04-02T12:09:20.761Z,1010.22
2023-04-02T12:11:49.158Z,1009.99
2023-04-02T12:14:41.976Z,1010.08
2023-04-02T12:17:26.044Z,1009.68
2023-04-02T12:19:55.106Z,1009.72
2023-04-02T12:22:23.972Z,1009.79
2023-04-02T12:24:56.148Z,1009.85
2023-04-02T12:27:26.119Z,1010.10
2023-04-02T12:29:53.631Z,1010.24
2023-04-02T12:32:27.712Z,1010.30
2023-04-02T12:34:57.625Z,1010.56
2023-04-02T12:37:27.254Z,1010.54
2023-04-02T12:40:00.140Z,1010.76
2023-04-02T12:42:29.120Z,1010.80
2023-04-02T12:44:56.124Z,1010.84
2023-04-02T12:47:23.504Z,1010.71
2023-04-02T12:49:51.040Z,1010.78
2023-04-02T12:52:20.699Z,1010.77
2023-04-02T12:54:49.328Z,1010.64
2023-04-02T12:57:41.642Z,1010.55
2023-04-02T13:00:31.973Z,1010.49
2023-04-02T13:03:02.277Z,1010.26
2023-04-02T13:05:36.029Z,1010.26
2023-04-02T13:08:04.075Z,1010.21
2023-04-02T13:10:31.370Z,1010.11
2023-04-02T13:13:02.021Z,1010.16
2023-04-02T13:15:32.407Z,1010.08
2023-04-02T13:18:07.434Z,1009.99
2023-04-02T13:20:38.144Z,1009.92
2023-04-02T13:23:32.498Z,1009.98
2023-04-02T13:26:01.101Z,1010.24
2023-04-02T13:28:32.713Z,1010.37
2023-04-02T13:31:00.126Z,1010.37
2023-04-02T13:33:28.538Z,1010.40
2023-04-02T13:35:56.076Z,1010.30
2023-04-02T13:38:23.209Z,1010.29
2023-04-02T13:40:50.048Z,1010.04
2023-04-02T13:43:20.181Z,1009.90
2023-04-02T13:45:51.989Z,1009.73
2023-04-02T13:48:18.973Z,1009.76
2023-04-02T13:50:48.043Z,1009.77
2023-04-02T13:53:23.470Z,1009.75
2023-04-02T13:55:50.837Z,1009.83
2023-04-02T13:58:18.011Z,1009.83
2023-04-02T14:00:45.659Z,1010.15
2023-04-02T14:03:19.316Z,1010.18
2023-04-02T14:05:56.015Z,1010.17
2023-04-02T14:08:31.599Z,1010.45
2023-04-02T14:11:12.723Z,1010.53
2023-04-02T14:13:57.527Z,1010.63
2023-04-02T14:16:43.597Z,1010.70
2023-04-02T14:19:27.606Z,1010.91
2023-04-02T14:22:06.069Z,1011.05
2023-04-02T14:24:44.405Z,1011.12
2023-04-02T14:27:24.356Z,1011.16
2023-04-02T14:30:00.476Z,1011.11
2023-04-02T14:32:31.883Z,1011.11
2023-04-02T14:35:11.030Z,1011.04
2023-04-02T14:37:41.770Z,1011.10
2023-04-02T14:40:19.564Z,1011.07
2023-04-02T14:42:53.889Z,1011.03
2023-04-02T14:45:36.335Z,1010.90
2023-04-02T14:48:12.216Z,1010.88
2023-04-02T14:50:42.485Z,1010.72
2023-04-02T14:53:17.287Z,1010.65
2023-04-02T14:55:48.168Z,1010.68
2023-04-02T14:58:18.945Z,1010.60
2023-04-02T15:00:54.941Z,1010.50
2023-04-02T15:03:23.913Z,1010.53
2023-04-02T15:05:57.089Z,1010.47
2023-04-02T15:08:26.219Z,1010.52
2023-04-02T15:11:04.896Z,1010.47
2023-04-02T15:13:37.392Z,1010.41
2023-04-02T15:16:11.485Z,1010.41
2023-04-02T15:18:38.588Z,1010.43
2023-04-02T15:21:22.055Z,1010.50
2023-04-02T15:23:59.669Z,1010.67
2023-04-02T15:26:36.496Z,1010.85
2023-04-02T15:29:28.362Z,1010.98
2023-04-02T15:32:04.049Z,1010.82
2023-04-02T15:34:34.993Z,1010.71
2023-04-02T15:37:12.514Z,1010.77
2023-04-02T15:39:54.883Z,1010.90
2023-04-02T15:42:24.989Z,1011.00
2023-04-02T15:45:18.519Z,1010.94
2023-04-02T15:47:58.550Z,1010.92
2023-04-02T15:50:46.815Z,1010.90
2023-04-02T15:53:34.147Z,1010.93
2023-04-02T15:56:14.238Z,1010.95
2023-04-02T15:58:57.935Z,1011.10
2023-04-02T16:01:35.204Z,1011.05
2023-04-02T16:04:27.222Z,1011.14
2023-04-02T16:07:18.080Z,1011.16
2023-04-02T16:09:52.554Z,1011.32
2023-04-02T16:12:20.504Z,1011.54
2023-04-02T16:14:49.727Z,1011.60
2023-04-02T16:17:25.324Z,1011.78
2023-04-02T16:19:56.645Z,1011.90
2023-04-02T16:22:26.644Z,1011.83
2023-04-02T16:25:00.184Z,1012.05
2023-04-02T16:27:31.664Z,1012.23
2023-04-02T16:30:28.897Z,1012.29
2023-04-02T16:33:20.605Z,1012.38
2023-04-02T16:35:57.160Z,1012.30
2023-04-02T16:38:37.757Z,1012.48
2023-04-02T16:41:13.762Z,1012.49
2023-04-02T16:43:49.405Z,1012.53
2023-04-02T16:46:38.121Z,1012.58
2023-04-02T16:49:14.758Z,1012.62
2023-04-02T16:51:49.732Z,1012.63
2023-04-02T16:54:23.794Z,1012.67
2023-04-02T16:57:13.634Z,1012.63
2023-04-02T16:59:49.106Z,1012.74
2023-04-02T17:02:26.219Z,1012.75
2023-04-02T17:04:58.799Z,1013.02
2023-04-02T17:07:34.264Z,1013.04
2023-04-02T17:10:19.094Z,1013.06
2023-04-02T17:12:51.307Z,1013.15
2023-04-02T17:17:53.004Z,1013.29
2023-04-02T17:20:23.398Z,1013.35
2023-04-02T17:22:51.807Z,1013.60
2023-04-02T17:25:24.248Z,1013.57
2023-04-02T17:27:54.562Z,1013.65
2023-04-02T17:30:35.023Z,1013.89
2023-04-02T17:33:05.881Z,1013.96
2023-04-02T17:35:43.802Z,1014.02
2023-04-02T17:38:20.951Z,1014.07
2023-04-02T17:40:54.041Z,1014.15
2023-04-02T17:43:34.031Z,1014.17
2023-04-02T17:46:09.041Z,1014.13
2023-04-02T17:48:43.857Z,1014.30
2023-04-02T17:51:20.398Z,1014.19
2023-04-02T17:53:58.296Z,1014.45
2023-04-02T17:56:42.883Z,1014.45
2023-04-02T17:59:27.218Z,1014.48
2023-04-02T18:02:02.152Z,1014.55
2023-04-02T18:04:38.558Z,1014.63
2023-04-02T18:07:23.524Z,1014.75
2023-04-02T18:09:59.403Z,1014.85
2023-04-02T18:12:41.206Z,1014.92
2023-04-02T18:15:36.164Z,1014.96
2023-04-02T18:18:15.856Z,1015.07
2023-04-02T18:20:53.499Z,1015.10
2023-04-02T18:23:33.455Z,1015.19
2023-04-02T18:26:12.469Z,1015.21
2023-04-02T18:28:48.487Z,1015.18
2023-04-02T18:31:23.810Z,1015.20
2023-04-02T18:34:26.468Z,1015.30
2023-04-02T18:37:06.242Z,1015.25
2023-04-02T18:39:44.444Z,1015.30
2023-04-02T18:42:19.223Z,1015.31
2023-04-02T18:44:54.827Z,1015.41
2023-04-02T18:47:30.514Z,1015.49
2023-04-02T18:50:11.591Z,1015.54
2023-04-02T18:52:38.445Z,1015.71
2023-04-02T18:55:13.096Z,1015.70
2023-04-02T18:57:42.356Z,1015.73
2023-04-02T19:00:21.508Z,1015.81
2023-04-02T19:02:53.385Z,1015.84
2023-04-02T19:05:26.595Z,1015.78
2023-04-02T19:08:03.865Z,1015.88
2023-04-02T19:10:33.745Z,1015.90
2023-04-02T19:13:00.963Z,1016.03
2023-04-02T19:15:38.581Z,1016.11
2023-04-02T19:18:16.409Z,1016.14
2023-04-02T19:20:50.215Z,1016.15
2023-04-02T19:23:31.860Z,1016.16
2023-04-02T19:26:04.973Z,1016.11
2023-04-02T19:28:38.484Z,1016.20
2023-04-02T19:31:31.932Z,1016.24
2023-04-02T19:34:07.778Z,1016.22
2023-04-02T19:36:45.637Z,1016.24
2023-04-02T19:39:40.980Z,1016.33
2023-04-02T19:42:15.543Z,1016.41
2023-04-02T19:44:45.766Z,1016.46
2023-04-02T19:47:13.084Z,1016.49
2023-04-02T19:49:41.729Z,1016.45
2023-04-02T19:52:08.466Z,1016.52
2023-04-02T19:54:36.381Z,1016.56
2023-04-02T19:57:05.418Z,1016.67
2023-04-02T19:59:32.584Z,1016.60
2023-04-02T20:01:59.311Z,1016.68
2023-04-02T20:04:26.164Z,1016.72
2023-04-02T20:06:54.368Z,1016.65
2023-04-02T20:09:21.103Z,1016.67
2023-04-02T20:11:47.906Z,1016.68
2023-04-02T20:14:14.761Z,1016.79
2023-04-02T20:16:42.685Z,1016.69
2023-04-02T20:19:10.547Z,1016.76
2023-04-02T20:21:37.295Z,1016.79
2023-04-02T20:24:06.234Z,1016.85
2023-04-02T20:26:34.104Z,1016.88
2023-04-02T20:29:00.866Z,1016.83
2023-04-02T20:31:27.882Z,1016.93
2023-04-02T20:33:55.644Z,1016.93
2023-04-02T20:36:22.565Z,1017.02
2023-04-02T20:38:49.419Z,1016.99
2023-04-02T20:41:18.303Z,1017.01
2023-04-02T20:43:45.016Z,1017.07
2023-04-02T20:46:12.606Z,1017.11
2023-04-02T20:48:40.270Z,1017.19
2023-04-02T20:51:08.666Z,1017.27
2023-04-02T20:53:36.918Z,1017.27
2023-04-02T20:56:04.296Z,1017.21
2023-04-02T20:58:33.113Z,1017.28
2023-04-02T21:01:11.464Z,1017.27
2023-04-02T21:03:39.100Z,1017.25
2023-04-02T21:06:06.544Z,1017.19
2023-04-02T21:08:33.392Z,1017.17
2023-04-02T21:11:04.799Z,1017.23
2023-04-02T21:13:34.337Z,1017.18
2023-04-02T21:16:01.127Z,1017.43
2023-04-02T21:18:27.885Z,1017.37
2023-04-02T21:20:59.030Z,1017.60
2023-04-02T21:23:25.875Z,1017.46
2023-04-02T21:26:00.382Z,1017.60
2023-04-02T21:28:28.125Z,1017.59
2023-04-02T21:31:04.362Z,1017.63
2023-04-02T21:33:31.686Z,1017.67
2023-04-02T21:36:05.196Z,1017.72
2023-04-02T21:38:32.012Z,1017.76
2023-04-02T21:41:09.532Z,1017.78
2023-04-02T21:43:36.368Z,1017.70
2023-04-02T21:46:04.774Z,1017.78
2023-04-02T21:48:31.962Z,1017.77
2023-04-02T21:51:05.830Z,1017.88
2023-04-02T21:53:33.036Z,1017.84
2023-04-02T21:56:04.669Z,1017.72
2023-04-02T21:58:31.504Z,1017.79
2023-04-02T22:00:58.716Z,1017.80
2023-04-02T22:03:31.675Z,1017.96
2023-04-02T22:06:04.135Z,1018.07
2023-04-02T22:08:30.968Z,1018.05
2023-04-02T22:10:57.690Z,1018.11
2023-04-02T22:13:24.453Z,1018.13
2023-04-02T22:15:51.522Z,1018.18
2023-04-02T22:18:18.284Z,1018.33
2023-04-02T22:20:46.903Z,1018.32
2023-04-02T22:23:13.998Z,1018.37
2023-04-02T22:25:41.084Z,1018.24
2023-04-02T22:28:08.198Z,1018.23
2023-04-02T22:30:35.413Z,1018.20
2023-04-02T22:33:02.760Z,1018.18
2023-04-02T22:35:29.976Z,1018.19
2023-04-02T22:37:58.082Z,1018.24
2023-04-02T22:40:25.390Z,1018.32
2023-04-02T22:42:52.160Z,1018.22
2023-04-02T22:45:19.321Z,1018.19
2023-04-02T22:47:46.199Z,1018.17
2023-04-02T22:50:12.968Z,1018.29
2023-04-02T22:52:39.742Z,1018.34
2023-04-02T22:55:09.693Z,1018.28
2023-04-02T22:57:36.499Z,1018.19
2023-04-02T23:00:05.258Z,1018.20
2023-04-02T23:02:32.182Z,1018.19
2023-04-02T23:04:58.972Z,1018.16
2023-04-02T23:07:25.704Z,1018.12
2023-04-02T23:09:52.458Z,1018.28
2023-04-02T23:12:20.625Z,1018.17
2023-04-02T23:14:47.412Z,1018.38
2023-04-02T23:17:14.136Z,1018.25
2023-04-02T23:19:41.089Z,1018.32
2023-04-02T23:22:07.898Z,1018.35
2023-04-02T23:24:34.667Z,1018.36
2023-04-02T23:27:01.481Z,1018.48
2023-04-02T23:29:30.500Z,1018.48
2023-04-02T23:31:57.369Z,1018.41
2023-04-02T23:34:24.191Z,1018.39
2023-04-02T23:36:50.925Z,1018.45
2023-04-02T23:39:17.756Z,1018.49
2023-04-02T23:41:44.464Z,1018.50
2023-04-02T23:44:11.546Z,1018.53
2023-04-02T23:46:39.725Z,1018.46
2023-04-02T23:49:06.568Z,1018.42
2023-04-02T23:51:33.505Z,1018.43
2023-04-02T23:54:00.603Z,1018.39
2023-04-02T23:56:28.381Z,1018.42
2023-04-02T23:58:55.163Z,1018.47
